Time;durP1;ratioP1;P1;durP2;ratioP2;P2;SDS_P1;SDS_P2;PMS_P1;PMS_P2;Temp;Humidity;BMP_temperature;BMP_pressure;BME280_temperature;BME280_humidity;BME280_pressure;Samples;Min_cycle;Max_cycle;Signal;HPM_P1;HPM_P2
2021/05/19 00:01:29;;;;;;;19.67;16.23;;;12.00;99.90;;;;;;5052459;28;20421;-76
2021/05/19 00:03:55;;;;;;;15.33;13.93;;;11.90;99.90;;;;;;5051355;28;20417;-76
2021/05/19 00:06:21;;;;;;;15.90;14.40;;;12.00;99.90;;;;;;5051739;28;20469;-77
2021/05/19 00:08:47;;;;;;;16.87;15.20;;;11.90;99.90;;;;;;5049971;28;20424;-76
2021/05/19 00:11:13;;;;;;;16.63;15.03;;;11.90;99.90;;;;;;5052421;28;20189;-76
2021/05/19 00:13:39;;;;;;;14.23;12.93;;;11.90;99.90;;;;;;5033732;28;20195;-78
2021/05/19 00:16:08;;;;;;;16.80;15.20;;;11.80;99.90;;;;;;5014655;28;20264;-76
2021/05/19 00:18:35;;;;;;;17.77;15.97;;;11.80;99.90;;;;;;5032093;28;20977;-76
2021/05/19 00:21:02;;;;;;;15.80;14.40;;;11.80;99.90;;;;;;5031501;28;20463;-76
2021/05/19 00:23:28;;;;;;;17.03;15.43;;;11.70;99.90;;;;;;5032149;28;20831;-76
2021/05/19 00:25:54;;;;;;;17.40;15.80;;;11.70;99.90;;;;;;5043059;28;20486;-76
2021/05/19 00:28:21;;;;;;;17.37;15.80;;;11.70;99.90;;;;;;5034403;28;20412;-76
2021/05/19 00:30:49;;;;;;;16.77;15.03;;;11.70;99.90;;;;;;5033698;28;20179;-77
2021/05/19 00:33:14;;;;;;;17.10;15.53;;;11.70;99.90;;;;;;5017235;28;20594;-76
2021/05/19 00:35:40;;;;;;;15.20;13.70;;;11.60;99.90;;;;;;5040570;28;20519;-79
2021/05/19 00:38:06;;;;;;;15.10;13.70;;;11.60;99.90;;;;;;5031857;28;20517;-76
2021/05/19 00:40:32;;;;;;;15.60;13.90;;;11.60;99.90;;;;;;5021332;28;20175;-76
2021/05/19 00:42:58;;;;;;;15.80;14.30;;;11.60;99.90;;;;;;5033414;28;20621;-76
2021/05/19 00:45:24;;;;;;;16.50;14.93;;;11.50;99.90;;;;;;5052112;28;20237;-77
2021/05/19 00:47:50;;;;;;;17.83;16.13;;;11.50;99.90;;;;;;5051138;28;20532;-77
2021/05/19 00:50:22;;;;;;;16.90;15.20;;;11.50;99.90;;;;;;5051677;28;20511;-77
2021/05/19 00:52:48;;;;;;;17.03;15.30;;;11.50;99.90;;;;;;5050901;28;21063;-77
2021/05/19 00:55:15;;;;;;;17.07;15.27;;;11.50;99.90;;;;;;5052062;28;20514;-77
2021/05/19 00:57:43;;;;;;;16.57;14.97;;;11.50;99.90;;;;;;5050494;28;20174;-79
2021/05/19 01:00:12;;;;;;;17.00;15.40;;;11.50;99.90;;;;;;5051711;28;20420;-77
2021/05/19 01:02:38;;;;;;;16.23;14.63;;;11.50;99.90;;;;;;5051775;28;20473;-77
2021/05/19 01:05:17;;;;;;;17.63;15.93;;;11.40;99.90;;;;;;5051142;28;20939;-76
2021/05/19 01:09:35;;;;;;;17.97;16.17;;;11.50;99.90;;;;;;5039753;28;20946;-79
2021/05/19 01:10:28;;;;;;;17.90;16.00;;;11.50;99.90;;;;;;5031951;28;20424;-77
2021/05/19 01:12:54;;;;;;;18.20;16.40;;;11.40;99.90;;;;;;5031050;28;20466;-77
2021/05/19 01:15:20;;;;;;;18.03;16.07;;;11.40;99.90;;;;;;5032887;28;20423;-77
2021/05/19 01:17:47;;;;;;;16.63;14.80;;;11.40;99.90;;;;;;5014650;28;20436;-77
2021/05/19 01:20:14;;;;;;;18.53;16.73;;;11.40;99.90;;;;;;5014220;28;20199;-77
2021/05/19 01:22:41;;;;;;;18.03;15.93;;;11.40;99.90;;;;;;5038641;28;20915;-79
2021/05/19 01:25:08;;;;;;;18.00;16.10;;;11.40;99.90;;;;;;5052321;28;20476;-77
2021/05/19 01:27:33;;;;;;;17.97;16.17;;;11.30;99.90;;;;;;5071629;28;20433;-76
2021/05/19 01:30:00;;;;;;;16.33;14.73;;;11.40;99.90;;;;;;5070594;28;20507;-77
2021/05/19 01:32:26;;;;;;;16.90;15.20;;;11.40;99.90;;;;;;5071306;28;20184;-77
2021/05/19 01:34:52;;;;;;;18.07;16.27;;;11.30;99.90;;;;;;5070467;28;20788;-77
2021/05/19 01:37:19;;;;;;;18.90;17.00;;;11.30;99.90;;;;;;5068447;28;20474;-77
2021/05/19 01:39:46;;;;;;;18.40;16.50;;;11.30;99.90;;;;;;5056963;28;20417;-78
2021/05/19 01:42:12;;;;;;;18.73;16.93;;;11.40;99.90;;;;;;5052757;28;20435;-76
2021/05/19 01:44:38;;;;;;;19.60;17.60;;;11.50;99.90;;;;;;5050223;28;20425;-76
2021/05/19 01:47:05;;;;;;;19.53;17.43;;;11.50;99.90;;;;;;5053645;28;20551;-76
2021/05/19 01:49:37;;;;;;;18.67;16.80;;;11.50;99.90;;;;;;5073173;28;20402;-77
2021/05/19 01:52:05;;;;;;;19.03;17.23;;;11.50;99.90;;;;;;5073046;28;20397;-77
2021/05/19 01:54:31;;;;;;;18.00;16.30;;;11.40;99.90;;;;;;5075105;28;20418;-77
2021/05/19 01:56:57;;;;;;;18.57;16.60;;;11.40;99.90;;;;;;5072257;28;20475;-77
2021/05/19 01:59:22;;;;;;;18.90;17.10;;;11.40;99.90;;;;;;5074872;28;20469;-77
2021/05/19 02:01:48;;;;;;;18.40;16.33;;;11.40;99.90;;;;;;5073717;28;20453;-78
2021/05/19 02:04:16;;;;;;;17.93;16.20;;;11.30;99.90;;;;;;5054875;28;20175;-76
2021/05/19 02:06:55;;;;;;;20.83;18.73;;;11.40;99.90;;;;;;5054686;28;20205;-76
2021/05/19 02:09:22;;;;;;;20.00;18.00;;;11.30;99.90;;;;;;5054775;28;20423;-77
2021/05/19 02:11:48;;;;;;;19.60;17.57;;;11.30;99.90;;;;;;5060810;28;20419;-78
2021/05/19 02:14:15;;;;;;;19.93;17.60;;;11.30;99.90;;;;;;5074607;28;20415;-77
2021/05/19 02:16:41;;;;;;;19.53;17.50;;;11.30;99.90;;;;;;5074543;28;20426;-77
2021/05/19 02:19:10;;;;;;;20.50;18.00;;;11.30;99.90;;;;;;5072197;28;21403;-77
2021/05/19 02:21:46;;;;;;;19.40;17.50;;;11.30;99.90;;;;;;5069834;28;20183;-77
2021/05/19 02:24:13;;;;;;;17.77;15.97;;;11.30;99.90;;;;;;5072872;28;20970;-77
2021/05/19 02:26:40;;;;;;;19.50;17.30;;;11.20;99.90;;;;;;5074299;28;20786;-77
2021/05/19 02:29:06;;;;;;;19.57;16.70;;;11.20;99.90;;;;;;5073760;28;20414;-77
2021/05/19 02:31:33;;;;;;;18.83;16.37;;;11.10;99.90;;;;;;5074318;28;20403;-77
2021/05/19 02:33:59;;;;;;;20.50;16.57;;;11.10;99.90;;;;;;5073417;28;20416;-77
2021/05/19 02:36:25;;;;;;;21.00;18.80;;;11.10;99.90;;;;;;5073902;28;20519;-77
2021/05/19 02:38:52;;;;;;;21.17;18.80;;;11.10;99.90;;;;;;5072081;28;20177;-78
2021/05/19 02:41:18;;;;;;;19.67;17.57;;;11.10;99.90;;;;;;5056289;28;20476;-77
2021/05/19 02:43:43;;;;;;;19.30;17.30;;;11.10;99.90;;;;;;5074047;28;20895;-77
2021/05/19 02:46:12;;;;;;;20.67;18.47;;;11.20;99.90;;;;;;5070034;28;20264;-77
2021/05/19 02:48:38;;;;;;;22.20;19.77;;;11.10;99.90;;;;;;5072208;28;20180;-77
2021/05/19 02:51:04;;;;;;;25.07;20.10;;;11.10;99.90;;;;;;5053346;28;20413;-77
2021/05/19 02:53:30;;;;;;;21.27;19.13;;;11.10;99.90;;;;;;5053822;28;20910;-77
2021/05/19 02:55:56;;;;;;;22.00;19.30;;;11.10;99.90;;;;;;5052908;28;20479;-77
2021/05/19 02:58:21;;;;;;;22.47;20.07;;;11.20;99.90;;;;;;5052520;28;20423;-77
2021/05/19 03:00:47;;;;;;;20.90;18.70;;;11.20;99.90;;;;;;5053235;28;20185;-80
2021/05/19 03:03:13;;;;;;;21.17;18.97;;;11.20;99.90;;;;;;5053045;28;20619;-77
2021/05/19 03:05:39;;;;;;;22.40;19.97;;;11.20;99.90;;;;;;5052376;28;20239;-78
2021/05/19 03:08:05;;;;;;;23.80;20.00;;;11.20;99.90;;;;;;5051526;28;20174;-77
2021/05/19 03:10:34;;;;;;;21.33;19.13;;;11.20;99.90;;;;;;5053621;28;20181;-78
2021/05/19 03:12:59;;;;;;;20.57;18.40;;;11.20;99.90;;;;;;5052798;28;20497;-78
2021/05/19 03:15:26;;;;;;;21.20;19.00;;;11.30;99.90;;;;;;5053417;28;20462;-78
2021/05/19 03:17:52;;;;;;;20.70;18.50;;;11.20;99.90;;;;;;5064458;28;20248;-79
2021/05/19 03:20:18;;;;;;;19.53;16.70;;;11.20;99.90;;;;;;5073039;28;20411;-78
2021/05/19 03:22:44;;;;;;;21.20;18.20;;;11.20;99.90;;;;;;5072748;28;20419;-77
2021/05/19 03:25:10;;;;;;;20.53;18.43;;;11.20;99.90;;;;;;5059757;28;20573;-78
2021/05/19 03:27:36;;;;;;;23.60;21.10;;;11.20;99.90;;;;;;5052770;28;20435;-78
2021/05/19 03:30:05;;;;;;;22.67;20.23;;;11.20;99.90;;;;;;5052349;28;20493;-78
2021/05/19 03:32:30;;;;;;;23.50;21.00;;;11.20;99.90;;;;;;5035614;28;20180;-80
2021/05/19 03:34:56;;;;;;;22.43;20.03;;;11.20;99.90;;;;;;5034554;28;20415;-78
2021/05/19 03:37:22;;;;;;;25.60;22.80;;;11.20;99.90;;;;;;5053028;28;20174;-78
2021/05/19 03:39:48;;;;;;;19.43;17.30;;;11.20;99.90;;;;;;5052812;28;20177;-80
2021/05/19 03:42:14;;;;;;;21.97;19.77;;;11.20;99.90;;;;;;5034565;28;20492;-78
2021/05/19 03:44:39;;;;;;;23.40;20.90;;;11.20;99.90;;;;;;5049706;28;20266;-78
2021/05/19 03:47:05;;;;;;;21.90;19.43;;;11.10;99.90;;;;;;5031387;28;20214;-78
2021/05/19 03:49:34;;;;;;;22.43;20.07;;;11.10;99.90;;;;;;5032366;28;20189;-78
2021/05/19 03:52:00;;;;;;;23.57;19.83;;;11.10;99.90;;;;;;5032028;28;20170;-78
2021/05/19 03:54:26;;;;;;;23.53;20.30;;;11.10;99.90;;;;;;5032702;28;20424;-78
2021/05/19 03:56:52;;;;;;;23.50;21.10;;;11.10;99.90;;;;;;5014606;28;20200;-80
2021/05/19 03:59:18;;;;;;;23.20;20.80;;;11.10;99.90;;;;;;5032926;28;20221;-78
2021/05/19 04:01:44;;;;;;;22.53;19.30;;;11.10;99.90;;;;;;5014971;28;20406;-78
2021/05/19 04:04:09;;;;;;;24.10;19.10;;;11.10;99.90;;;;;;5031836;28;20757;-78
2021/05/19 04:06:35;;;;;;;24.57;22.07;;;11.20;99.90;;;;;;5041574;28;20320;-78
2021/05/19 04:09:05;;;;;;;29.37;22.60;;;11.20;99.90;;;;;;5051191;28;20439;-79
2021/05/19 04:11:31;;;;;;;25.30;20.67;;;11.20;99.90;;;;;;5052041;28;20165;-78
2021/05/19 04:13:57;;;;;;;24.60;20.90;;;11.20;99.90;;;;;;5051319;28;20434;-79
2021/05/19 04:16:23;;;;;;;28.57;23.83;;;11.20;99.90;;;;;;5052078;28;20420;-79
2021/05/19 04:18:48;;;;;;;25.10;21.70;;;11.30;99.90;;;;;;5052351;28;20536;-78
2021/05/19 04:21:14;;;;;;;26.63;20.43;;;11.30;99.90;;;;;;5033703;28;20250;-78
2021/05/19 04:23:40;;;;;;;23.27;20.80;;;11.30;99.90;;;;;;5052091;28;20220;-78
2021/05/19 04:26:07;;;;;;;24.37;21.03;;;11.30;99.90;;;;;;5050922;28;20332;-79
2021/05/19 04:28:33;;;;;;;26.10;21.90;;;11.30;99.90;;;;;;5052359;28;20191;-78
2021/05/19 04:30:59;;;;;;;26.07;21.20;;;11.40;99.90;;;;;;5051097;28;20502;-78
2021/05/19 04:33:25;;;;;;;25.97;21.07;;;11.40;99.90;;;;;;5052013;28;20169;-79
2021/05/19 04:35:50;;;;;;;24.93;20.87;;;11.40;99.90;;;;;;5031971;28;20199;-78
2021/05/19 04:38:16;;;;;;;25.93;21.17;;;11.50;99.90;;;;;;5031307;28;20533;-78
2021/05/19 04:40:44;;;;;;;24.10;21.17;;;11.40;99.90;;;;;;5032232;28;20178;-78
2021/05/19 04:43:10;;;;;;;29.43;23.57;;;11.50;99.90;;;;;;5013510;28;20542;-79
2021/05/19 04:45:36;;;;;;;25.80;21.27;;;11.50;99.90;;;;;;5036856;28;20452;-80
2021/05/19 04:48:03;;;;;;;27.83;24.90;;;11.50;99.90;;;;;;5004299;28;20460;-78
2021/05/19 04:50:29;;;;;;;26.80;23.90;;;11.50;99.90;;;;;;5041111;28;20772;-77
2021/05/19 04:52:55;;;;;;;23.90;21.33;;;11.50;99.90;;;;;;5032784;28;20430;-77
2021/05/19 04:55:21;;;;;;;26.60;23.47;;;11.50;99.90;;;;;;5035013;28;20432;-75
2021/05/19 04:57:47;;;;;;;25.83;23.10;;;11.50;99.90;;;;;;5032756;28;20241;-75
2021/05/19 05:00:13;;;;;;;26.57;21.80;;;11.50;99.90;;;;;;5034207;28;20415;-75
2021/05/19 05:02:40;;;;;;;30.10;25.30;;;11.50;99.90;;;;;;5034842;28;20277;-75
2021/05/19 05:05:10;;;;;;;24.93;22.30;;;11.60;99.90;;;;;;5032275;28;20761;-75
2021/05/19 05:07:36;;;;;;;24.07;21.47;;;11.50;99.90;;;;;;5033580;28;20475;-75
2021/05/19 05:10:04;;;;;;;27.90;22.70;;;11.50;99.90;;;;;;5031203;28;20422;-75
2021/05/19 05:12:30;;;;;;;29.30;26.10;;;11.50;99.90;;;;;;5046100;28;20425;-75
2021/05/19 05:14:55;;;;;;;26.50;23.60;;;11.50;99.90;;;;;;5030674;28;20429;-75
2021/05/19 05:17:21;;;;;;;31.57;24.23;;;11.50;99.90;;;;;;5020397;28;20179;-75
2021/05/19 05:19:47;;;;;;;26.87;23.20;;;11.50;99.90;;;;;;5047998;28;20237;-75
2021/05/19 05:22:13;;;;;;;25.23;22.40;;;11.60;99.90;;;;;;5043084;28;20845;-75
2021/05/19 05:24:38;;;;;;;27.53;22.77;;;11.60;99.90;;;;;;5049840;28;20220;-75
2021/05/19 05:27:05;;;;;;;28.37;23.63;;;11.60;99.90;;;;;;5045437;28;20292;-75
2021/05/19 05:29:31;;;;;;;29.03;24.20;;;11.60;99.90;;;;;;5044748;28;20184;-75
2021/05/19 05:31:57;;;;;;;30.80;22.70;;;11.70;99.90;;;;;;5040526;28;20423;-76
2021/05/19 05:34:23;;;;;;;28.27;22.00;;;11.70;99.90;;;;;;5050196;28;20534;-75
2021/05/19 05:36:49;;;;;;;27.10;22.87;;;11.80;99.90;;;;;;5040143;28;20642;-75
2021/05/19 05:39:15;;;;;;;27.80;23.10;;;11.80;99.90;;;;;;5036949;28;20887;-75
2021/05/19 05:41:41;;;;;;;33.13;26.57;;;11.80;99.90;;;;;;5039384;28;20425;-76
2021/05/19 05:44:07;;;;;;;29.40;24.17;;;11.90;99.90;;;;;;5035262;28;20174;-76
2021/05/19 05:46:33;;;;;;;29.47;25.53;;;11.90;99.90;;;;;;5043126;28;20645;-75
2021/05/19 05:48:59;;;;;;;30.03;24.10;;;12.00;99.90;;;;;;5051573;28;20530;-75
2021/05/19 05:51:26;;;;;;;29.20;26.03;;;12.00;99.90;;;;;;5048211;28;20481;-75
2021/05/19 05:53:52;;;;;;;27.50;23.93;;;12.10;99.90;;;;;;5042671;28;20416;-75
2021/05/19 05:56:18;;;;;;;31.07;26.00;;;12.10;99.90;;;;;;5038018;28;20840;-75
2021/05/19 05:58:44;;;;;;;32.20;27.00;;;12.10;99.90;;;;;;5039139;28;20442;-76
2021/05/19 06:01:10;;;;;;;31.70;26.40;;;12.20;99.90;;;;;;5046472;28;20510;-75
2021/05/19 06:03:36;;;;;;;32.30;27.40;;;12.30;99.90;;;;;;5042268;28;20186;-75
2021/05/19 06:06:02;;;;;;;29.20;25.27;;;12.30;99.90;;;;;;5046053;28;20466;-76
2021/05/19 06:08:28;;;;;;;35.63;27.57;;;12.40;99.90;;;;;;5054707;28;20276;-75
2021/05/19 06:10:55;;;;;;;30.07;26.93;;;12.30;99.90;;;;;;5036487;28;20413;-75
2021/05/19 06:13:22;;;;;;;32.90;29.33;;;12.40;99.90;;;;;;5034891;28;20401;-75
2021/05/19 06:15:48;;;;;;;28.60;24.97;;;12.40;99.90;;;;;;5043059;28;20478;-75
2021/05/19 06:18:14;;;;;;;30.40;26.13;;;12.40;99.90;;;;;;5045363;28;20426;-75
2021/05/19 06:20:40;;;;;;;29.40;25.07;;;12.50;99.90;;;;;;5042277;28;20496;-75
2021/05/19 06:23:06;;;;;;;31.93;23.23;;;12.60;99.90;;;;;;5035634;28;20416;-76
2021/05/19 06:25:31;;;;;;;25.20;22.53;;;12.80;99.90;;;;;;5045217;28;20527;-75
2021/05/19 06:27:57;;;;;;;25.87;23.10;;;12.90;99.90;;;;;;5048501;28;20533;-76
2021/05/19 06:30:23;;;;;;;27.73;24.07;;;13.00;99.90;;;;;;5047436;28;20173;-75
2021/05/19 06:32:50;;;;;;;24.20;21.70;;;13.00;99.90;;;;;;5051976;28;20417;-75
2021/05/19 06:35:16;;;;;;;30.10;26.90;;;13.10;99.90;;;;;;5038839;28;20645;-75
2021/05/19 06:37:42;;;;;;;26.97;24.17;;;13.20;99.90;;;;;;5036035;28;20424;-75
2021/05/19 06:40:08;;;;;;;28.73;25.63;;;13.30;99.90;;;;;;5036997;28;20429;-75
2021/05/19 06:42:34;;;;;;;27.90;24.90;;;13.40;99.90;;;;;;5032028;28;20185;-75
2021/05/19 06:45:00;;;;;;;21.20;19.00;;;13.40;99.90;;;;;;5045845;28;20820;-75
2021/05/19 06:47:25;;;;;;;22.83;20.40;;;13.40;99.90;;;;;;5033960;28;20182;-75
2021/05/19 06:49:52;;;;;;;21.10;17.17;;;13.50;99.90;;;;;;5054189;28;20259;-75
2021/05/19 06:52:18;;;;;;;16.70;15.13;;;13.50;99.90;;;;;;5063074;28;20182;-75
2021/05/19 06:54:44;;;;;;;19.77;18.10;;;13.50;99.90;;;;;;5071251;28;20413;-75
2021/05/19 06:57:10;;;;;;;15.57;14.13;;;13.60;99.90;;;;;;5053166;28;20417;-75
2021/05/19 06:59:36;;;;;;;20.10;18.30;;;13.60;99.90;;;;;;5053511;28;20612;-75
2021/05/19 07:02:02;;;;;;;16.37;14.90;;;13.60;99.90;;;;;;5052815;28;20184;-76
2021/05/19 07:04:27;;;;;;;16.40;14.90;;;13.70;99.90;;;;;;5054027;28;20179;-75
2021/05/19 07:06:53;;;;;;;18.73;16.73;;;13.70;99.90;;;;;;5025631;28;20488;-75
2021/05/19 07:09:20;;;;;;;16.93;15.13;;;13.80;99.90;;;;;;5016377;28;20187;-75
2021/05/19 07:11:46;;;;;;;16.00;14.30;;;13.80;99.90;;;;;;5040954;28;20921;-75
2021/05/19 07:14:16;;;;;;;15.20;13.70;;;14.00;99.90;;;;;;5033241;28;20466;-75
2021/05/19 07:16:53;;;;;;;15.73;14.00;;;13.90;99.90;;;;;;5042162;28;20441;-75
2021/05/19 07:19:20;;;;;;;14.70;13.30;;;14.00;99.90;;;;;;5052891;28;20913;-75
2021/05/19 07:21:46;;;;;;;13.70;12.27;;;14.00;99.90;;;;;;5037534;28;20432;-75
2021/05/19 07:24:12;;;;;;;17.30;15.70;;;14.10;99.90;;;;;;5032879;28;20510;-75
2021/05/19 07:26:42;;;;;;;19.87;16.07;;;14.10;99.90;;;;;;5033597;28;20457;-75
2021/05/19 07:29:09;;;;;;;17.00;14.67;;;14.10;99.90;;;;;;5033434;28;20503;-75
2021/05/19 07:31:35;;;;;;;17.57;16.27;;;14.20;99.90;;;;;;5036557;28;20454;-75
2021/05/19 07:34:02;;;;;;;12.23;10.20;;;14.30;99.90;;;;;;5052624;28;20410;-76
2021/05/19 07:36:28;;;;;;;10.70;9.57;;;14.40;99.90;;;;;;5052343;28;20427;-75
2021/05/19 07:38:54;;;;;;;12.83;11.57;;;14.40;99.60;;;;;;5052735;28;20422;-75
2021/05/19 07:41:24;;;;;;;10.80;9.87;;;14.50;99.10;;;;;;5050860;28;20712;-75
2021/05/19 07:43:51;;;;;;;11.27;10.17;;;14.60;99.20;;;;;;5041059;28;20431;-75
2021/05/19 07:46:17;;;;;;;12.00;10.00;;;14.70;99.60;;;;;;5047809;28;20808;-75
2021/05/19 07:48:43;;;;;;;12.00;9.90;;;14.70;98.90;;;;;;5049746;28;20561;-75
2021/05/19 07:51:08;;;;;;;11.07;10.07;;;14.80;98.30;;;;;;5044897;28;20508;-75
2021/05/19 07:53:34;;;;;;;11.83;9.50;;;14.80;98.20;;;;;;5032981;28;20193;-75
2021/05/19 07:56:09;;;;;;;9.73;8.93;;;14.90;97.40;;;;;;5036343;28;20188;-74
2021/05/19 07:58:40;;;;;;;11.90;9.63;;;14.90;98.30;;;;;;5053159;28;20407;-75
2021/05/19 08:03:35;;;;;;;10.90;9.70;;;15.10;97.20;;;;;;5052861;28;20746;-74
2021/05/19 08:06:00;;;;;;;11.23;10.23;;;15.10;97.30;;;;;;5046774;28;20491;-73
2021/05/19 08:08:26;;;;;;;9.50;8.70;;;15.20;98.00;;;;;;5032751;28;20183;-74
2021/05/19 08:10:52;;;;;;;13.67;12.30;;;15.30;98.40;;;;;;5043593;28;20179;-73
2021/05/19 08:13:18;;;;;;;9.60;8.67;;;15.50;97.70;;;;;;5046364;28;20184;-74
2021/05/19 08:15:44;;;;;;;7.57;6.77;;;15.60;96.70;;;;;;5046839;28;20540;-73
2021/05/19 08:18:11;;;;;;;8.17;7.40;;;15.70;96.70;;;;;;5045227;28;20183;-73
2021/05/19 08:20:38;;;;;;;9.40;8.50;;;15.80;97.20;;;;;;5042952;28;20428;-75
2021/05/19 08:23:04;;;;;;;8.50;7.63;;;15.90;96.40;;;;;;5049038;28;20515;-76
2021/05/19 08:25:30;;;;;;;10.77;9.97;;;16.00;94.80;;;;;;5051398;28;20558;-75
2021/05/19 08:27:56;;;;;;;8.17;7.37;;;16.20;94.50;;;;;;5052355;28;20526;-75
2021/05/19 08:30:22;;;;;;;8.20;7.50;;;16.30;94.30;;;;;;5034086;28;20176;-75
2021/05/19 08:32:48;;;;;;;6.57;5.90;;;16.40;94.20;;;;;;5035216;28;20404;-75
2021/05/19 08:35:14;;;;;;;7.93;7.23;;;16.50;94.30;;;;;;5051829;28;20564;-75
2021/05/19 08:37:40;;;;;;;8.93;8.33;;;16.60;93.90;;;;;;5052686;28;20184;-75
2021/05/19 08:40:07;;;;;;;6.03;5.50;;;16.60;95.30;;;;;;5051827;28;20191;-75
2021/05/19 08:42:34;;;;;;;9.73;9.03;;;16.50;94.20;;;;;;5052318;28;20415;-75
2021/05/19 08:45:00;;;;;;;6.40;5.80;;;16.50;93.60;;;;;;5052611;28;20755;-75
2021/05/19 08:47:26;;;;;;;7.00;4.57;;;16.40;92.20;;;;;;5051781;28;20411;-75
2021/05/19 08:49:52;;;;;;;8.53;8.13;;;16.40;91.80;;;;;;5052402;28;20256;-75
2021/05/19 08:52:19;;;;;;;6.13;5.70;;;16.40;90.40;;;;;;5051701;28;20434;-75
2021/05/19 08:54:46;;;;;;;4.87;4.53;;;16.40;91.10;;;;;;5052286;28;20403;-75
2021/05/19 08:57:12;;;;;;;5.20;4.90;;;16.50;91.60;;;;;;5051677;28;20419;-75
2021/05/19 08:59:38;;;;;;;4.73;4.43;;;16.60;92.10;;;;;;5056039;28;20800;-75
2021/05/19 09:02:15;;;;;;;6.17;5.87;;;16.80;90.70;;;;;;5056337;28;20797;-75
2021/05/19 09:04:42;;;;;;;5.40;5.00;;;17.00;90.10;;;;;;5056307;28;20412;-75
2021/05/19 09:07:16;;;;;;;7.10;5.50;;;17.00;85.50;;;;;;5055644;28;20451;-75
2021/05/19 09:09:42;;;;;;;6.23;5.77;;;17.10;87.30;;;;;;5038481;28;20392;-75
2021/05/19 09:12:13;;;;;;;4.97;4.57;;;17.10;86.40;;;;;;5055521;28;20443;-76
2021/05/19 09:15:03;;;;;;;4.13;3.77;;;17.10;85.90;;;;;;5055964;28;20876;-75
2021/05/19 09:17:29;;;;;;;6.33;5.73;;;17.10;84.70;;;;;;5055430;28;20400;-75
2021/05/19 09:20:04;;;;;;;5.47;5.17;;;17.10;86.90;;;;;;5055970;28;20720;-75
2021/05/19 09:22:36;;;;;;;5.73;5.40;;;17.00;85.40;;;;;;5055277;28;20926;-75
2021/05/19 09:25:18;;;;;;;5.20;4.50;;;17.00;85.80;;;;;;5055674;28;20987;-75
2021/05/19 09:27:46;;;;;;;6.80;6.53;;;17.10;87.10;;;;;;5055931;28;20416;-75
2021/05/19 09:30:13;;;;;;;6.27;4.63;;;17.10;86.30;;;;;;5055137;28;20431;-75
2021/05/19 09:32:40;;;;;;;6.47;5.97;;;17.30;87.90;;;;;;5055630;28;20420;-75
2021/05/19 09:35:10;;;;;;;5.00;4.60;;;17.40;90.80;;;;;;5055747;28;20411;-75
2021/05/19 09:37:37;;;;;;;6.60;6.10;;;17.50;90.10;;;;;;5055641;28;20496;-75
2021/05/19 09:40:11;;;;;;;6.70;6.20;;;17.60;88.60;;;;;;5055569;28;20415;-75
2021/05/19 09:42:40;;;;;;;8.43;7.93;;;17.50;86.10;;;;;;5055600;28;20412;-75
2021/05/19 09:45:30;;;;;;;7.50;5.50;;;17.50;84.80;;;;;;5055467;28;20440;-75
2021/05/19 09:47:57;;;;;;;5.60;5.10;;;17.50;85.40;;;;;;5055617;28;20409;-75
2021/05/19 09:50:45;;;;;;;6.50;6.00;;;17.50;86.90;;;;;;5054831;28;20404;-75
2021/05/19 09:53:15;;;;;;;9.00;8.40;;;17.40;89.00;;;;;;5054746;28;20397;-76
2021/05/19 09:56:02;;;;;;;6.90;6.50;;;17.30;84.90;;;;;;5055568;28;20424;-75
2021/05/19 09:58:40;;;;;;;6.10;5.70;;;17.20;85.40;;;;;;5054519;28;20420;-75
2021/05/19 10:01:07;;;;;;;7.50;7.10;;;17.20;85.80;;;;;;5054854;28;20412;-75
2021/05/19 10:03:34;;;;;;;5.23;4.93;;;17.30;86.00;;;;;;5053972;28;20453;-75
2021/05/19 10:08:32;;;;;;;9.43;5.57;;;17.40;88.10;;;;;;5054067;28;20411;-75
2021/05/19 10:11:04;;;;;;;5.10;4.70;;;17.30;85.60;;;;;;5036446;28;20400;-75
2021/05/19 10:13:31;;;;;;;4.83;4.47;;;17.20;87.40;;;;;;5054333;28;20205;-75
2021/05/19 10:16:02;;;;;;;5.80;5.40;;;17.00;88.50;;;;;;5054878;28;20782;-75
2021/05/19 10:19:02;;;;;;;3.13;2.93;;;16.70;87.50;;;;;;5053742;28;20408;-75
2021/05/19 10:21:34;;;;;;;2.93;2.83;;;16.50;87.50;;;;;;5052880;28;20892;-75
2021/05/19 10:26:31;;;;;;;3.10;2.90;;;16.20;90.00;;;;;;5054115;28;20877;-75
2021/05/19 10:28:59;;;;;;;3.13;2.93;;;16.10;90.80;;;;;;5054910;28;20442;-75
2021/05/19 10:31:27;;;;;;;3.80;3.50;;;16.00;91.70;;;;;;5054096;28;20434;-75
2021/05/19 10:34:03;;;;;;;4.47;4.17;;;16.00;93.00;;;;;;5054553;28;20747;-75
2021/05/19 10:36:31;;;;;;;6.20;5.90;;;15.80;93.10;;;;;;5054040;28;20802;-75
2021/05/19 10:39:11;;;;;;;5.60;5.30;;;15.80;93.60;;;;;;5054206;28;20758;-75
2021/05/19 10:41:52;;;;;;;4.23;4.03;;;15.80;94.20;;;;;;5054538;28;20442;-75
2021/05/19 10:44:24;;;;;;;5.00;4.77;;;16.00;94.20;;;;;;5053832;28;20411;-75
2021/05/19 10:47:01;;;;;;;3.50;3.30;;;16.10;95.20;;;;;;5054346;28;20447;-75
2021/05/19 10:49:53;;;;;;;3.97;3.77;;;16.50;95.50;;;;;;5053631;28;20503;-75
2021/05/19 10:58:01;;;;;;;5.67;5.37;;;17.50;94.10;;;;;;5054178;28;20277;-75
2021/05/19 11:00:28;;;;;;;6.53;5.00;;;17.60;91.50;;;;;;5035633;28;20428;-75
2021/05/19 11:03:01;;;;;;;5.80;5.27;;;17.70;93.90;;;;;;5054036;28;20499;-75
2021/05/19 11:05:51;;;;;;;4.97;4.67;;;18.00;93.30;;;;;;5053443;28;20730;-76
2021/05/19 11:08:20;;;;;;;6.27;5.77;;;18.20;92.60;;;;;;5039677;28;20436;-76
2021/05/19 11:11:01;;;;;;;7.33;7.00;;;18.40;91.20;;;;;;5053864;28;20474;-75
2021/05/19 11:13:47;;;;;;;6.10;5.70;;;18.60;89.70;;;;;;5053312;28;20400;-76
2021/05/19 11:16:15;;;;;;;5.30;4.80;;;18.80;89.50;;;;;;5053474;28;20834;-76
2021/05/19 11:21:25;;;;;;;4.20;3.87;;;19.10;85.90;;;;;;5053388;28;20409;-75
2021/05/19 11:24:03;;;;;;;4.80;4.43;;;19.30;86.10;;;;;;5053489;28;20400;-75
2021/05/19 11:26:39;;;;;;;5.50;5.10;;;19.40;87.80;;;;;;5052980;28;20539;-75
2021/05/19 11:29:06;;;;;;;4.33;4.03;;;19.50;86.00;;;;;;5053628;28;20396;-75
2021/05/19 11:31:41;;;;;;;3.70;3.50;;;19.60;85.00;;;;;;5052902;28;20420;-75
2021/05/19 11:34:08;;;;;;;3.63;3.43;;;19.50;82.70;;;;;;5053590;28;20403;-74
2021/05/19 11:36:36;;;;;;;3.90;3.60;;;19.30;79.50;;;;;;5052747;28;20412;-75
2021/05/19 11:39:21;;;;;;;6.43;4.30;;;19.20;82.50;;;;;;5053370;28;20417;-75
2021/05/19 11:41:47;;;;;;;5.10;4.23;;;19.00;84.50;;;;;;5053476;28;20483;-76
2021/05/19 11:44:33;;;;;;;3.40;3.20;;;19.10;84.00;;;;;;5053267;28;20444;-75
2021/05/19 11:46:59;;;;;;;5.27;3.40;;;19.30;86.00;;;;;;5053129;28;20455;-74
2021/05/19 11:49:25;;;;;;;4.13;3.70;;;19.30;79.10;;;;;;5034750;28;20491;-74
2021/05/19 11:51:51;;;;;;;6.13;5.63;;;19.10;83.10;;;;;;5035285;28;20507;-74
2021/05/19 11:54:16;;;;;;;4.37;3.97;;;19.10;81.70;;;;;;5052252;28;20205;-76
2021/05/19 11:56:47;;;;;;;3.47;3.20;;;19.20;85.20;;;;;;5034952;28;20213;-75
2021/05/19 11:59:13;;;;;;;4.60;3.07;;;19.40;85.70;;;;;;5052957;28;20173;-74
2021/05/19 12:01:39;;;;;;;5.03;4.47;;;19.70;85.70;;;;;;5052349;28;20920;-75
2021/05/19 12:04:17;;;;;;;4.00;3.80;;;19.90;80.70;;;;;;5035466;28;20212;-75
2021/05/19 12:06:49;;;;;;;3.50;3.10;;;20.00;81.40;;;;;;5035294;28;20602;-75
2021/05/19 12:09:17;;;;;;;3.60;2.90;;;20.20;75.10;;;;;;5053070;28;20483;-75
2021/05/19 12:11:43;;;;;;;4.47;3.10;;;20.20;73.30;;;;;;5052762;28;20412;-75
2021/05/19 12:14:12;;;;;;;7.47;3.00;;;20.20;72.20;;;;;;5052371;28;20904;-73
2021/05/19 12:16:40;;;;;;;3.67;3.33;;;20.20;72.40;;;;;;5052443;28;20420;-75
2021/05/19 12:19:16;;;;;;;3.30;3.00;;;20.10;74.00;;;;;;5035082;28;20470;-75
2021/05/19 12:21:47;;;;;;;2.63;2.53;;;20.00;73.00;;;;;;5053314;28;20411;-75
2021/05/19 12:24:16;;;;;;;3.97;3.60;;;19.80;71.70;;;;;;5052485;28;20502;-75
2021/05/19 12:26:42;;;;;;;3.90;3.70;;;19.70;73.30;;;;;;5051988;28;20821;-75
2021/05/19 12:29:39;;;;;;;3.87;3.47;;;19.60;75.10;;;;;;5052855;28;20431;-75
2021/05/19 12:32:23;;;;;;;4.87;3.30;;;19.50;76.00;;;;;;5052439;28;20420;-75
2021/05/19 12:35:26;;;;;;;3.47;3.13;;;19.30;76.10;;;;;;5052865;28;20439;-76
2021/05/19 12:38:02;;;;;;;3.40;3.20;;;19.10;75.90;;;;;;5052521;28;20420;-76
2021/05/19 12:40:31;;;;;;;3.90;3.20;;;18.90;78.60;;;;;;5051928;28;20864;-76
2021/05/19 12:43:00;;;;;;;4.43;3.10;;;18.60;82.80;;;;;;5052404;28;20416;-74
2021/05/19 12:45:34;;;;;;;6.00;5.60;;;18.50;89.50;;;;;;5051755;28;20404;-74
2021/05/19 12:48:07;;;;;;;6.40;6.03;;;18.50;93.20;;;;;;5052632;28;20883;-74
2021/05/19 12:50:57;;;;;;;3.70;3.40;;;18.60;92.30;;;;;;5051920;28;20868;-74
2021/05/19 12:53:45;;;;;;;5.47;5.10;;;18.80;92.40;;;;;;5051696;28;20500;-76
2021/05/19 12:56:23;;;;;;;7.20;4.47;;;18.80;92.20;;;;;;5052118;28;20802;-74